createdAt,value
2022-12-08T00:01:23.975Z,94845.44
2022-12-08T00:03:52.220Z,94760.03
2022-12-08T00:06:50.282Z,94863.47
2022-12-08T00:09:39.157Z,94847.72
2022-12-08T00:12:13.608Z,94858.00
2022-12-08T00:14:45.840Z,94837.34
2022-12-08T00:17:15.267Z,94858.34
2022-12-08T00:19:43.073Z,94781.44
2022-12-08T00:22:11.396Z,94770.69
2022-12-08T00:24:40.403Z,94765.63
2022-12-08T00:27:12.591Z,94826.59
2022-12-08T00:29:39.378Z,94854.22
2022-12-08T00:32:07.030Z,94810.84
2022-12-08T00:34:34.030Z,94827.13
2022-12-08T00:37:00.987Z,94873.84
2022-12-08T00:39:27.629Z,94888.91
2022-12-08T00:42:12.576Z,94899.72
2022-12-08T00:44:44.987Z,94850.97
2022-12-08T00:47:13.093Z,94815.06
2022-12-08T00:49:40.274Z,94819.88
2022-12-08T00:52:07.184Z,94880.59
2022-12-08T00:54:33.954Z,94890.31
2022-12-08T00:57:00.652Z,94844.88
2022-12-08T00:59:27.392Z,94878.41
2022-12-08T01:01:54.085Z,94873.88
2022-12-08T01:04:21.288Z,94798.53
2022-12-08T01:06:48.888Z,94846.97
2022-12-08T01:09:16.747Z,94806.59
2022-12-08T01:11:44.728Z,94866.59
2022-12-08T01:14:12.301Z,94810.94
2022-12-08T01:16:41.499Z,94781.25
2022-12-08T01:19:11.131Z,94860.13
2022-12-08T01:21:38.137Z,94766.31
2022-12-08T01:24:05.524Z,94875.63
2022-12-08T01:26:32.181Z,94742.81
2022-12-08T01:28:59.592Z,94771.78
2022-12-08T01:31:26.471Z,94846.72
2022-12-08T01:33:53.561Z,94819.16
2022-12-08T01:36:26.287Z,94851.19
2022-12-08T01:38:54.157Z,94828.84
2022-12-08T01:41:26.166Z,94819.13
2022-12-08T01:43:57.787Z,94851.00
2022-12-08T01:46:25.598Z,94830.50
2022-12-08T01:48:57.007Z,94799.31
2022-12-08T01:51:24.503Z,94845.53
2022-12-08T01:53:51.828Z,94789.81
2022-12-08T01:56:31.599Z,94782.06
2022-12-08T01:58:58.458Z,94791.16
2022-12-08T02:01:25.458Z,94817.38
2022-12-08T02:03:58.559Z,94849.75
2022-12-08T02:06:27.769Z,94850.84
2022-12-08T02:08:57.583Z,94823.03
2022-12-08T02:11:24.290Z,94850.66
2022-12-08T02:13:53.319Z,94829.06
2022-12-08T02:16:43.095Z,94833.44
2022-12-08T02:20:00.304Z,94832.59
2022-12-08T02:22:51.890Z,94826.25
2022-12-08T02:25:45.412Z,94829.19
2022-12-08T02:28:52.722Z,94832.31
2022-12-08T02:31:41.100Z,94814.44
2022-12-08T02:34:16.824Z,94843.38
2022-12-08T02:37:10.463Z,94840.53
2022-12-08T02:40:22.389Z,94845.44
2022-12-08T02:42:58.851Z,94772.69
2022-12-08T02:45:29.053Z,94771.09
2022-12-08T02:47:58.113Z,94740.66
2022-12-08T02:50:25.058Z,94835.06
2022-12-08T02:52:51.867Z,94807.19
2022-12-08T02:55:49.629Z,94826.53
2022-12-08T02:58:35.412Z,94828.03
2022-12-08T03:01:41.140Z,94825.22
2022-12-08T03:04:24.752Z,94820.72
2022-12-08T03:06:56.663Z,94832.38
2022-12-08T03:09:35.438Z,94820.72
2022-12-08T03:12:25.746Z,94815.59
2022-12-08T03:14:56.890Z,94794.56
2022-12-08T03:17:26.537Z,94820.31
2022-12-08T03:19:54.769Z,94824.72
2022-12-08T03:22:25.896Z,94818.94
2022-12-08T03:24:53.532Z,94800.75
2022-12-08T03:27:23.609Z,94816.69
2022-12-08T03:29:53.364Z,94724.97
2022-12-08T03:32:33.659Z,94835.53
2022-12-08T03:35:08.330Z,94831.50
2022-12-08T03:37:37.041Z,94837.78
2022-12-08T03:40:06.928Z,94816.47
2022-12-08T03:42:33.987Z,94835.03
2022-12-08T03:45:00.663Z,94846.38
2022-12-08T03:47:27.384Z,94841.34
2022-12-08T03:49:54.056Z,94804.59
2022-12-08T03:52:20.780Z,94840.81
2022-12-08T03:54:47.392Z,94795.22
2022-12-08T03:57:14.014Z,94827.47
2022-12-08T03:59:40.688Z,94841.75
2022-12-08T04:02:08.318Z,94830.84
2022-12-08T04:04:35.200Z,94822.78
2022-12-08T04:07:02.092Z,94748.09
2022-12-08T04:09:28.843Z,94851.31
2022-12-08T04:11:55.539Z,94836.88
2022-12-08T04:14:22.310Z,94845.81
2022-12-08T04:16:49.216Z,94830.06
2022-12-08T04:19:16.033Z,94831.47
2022-12-08T04:21:42.691Z,94800.00
2022-12-08T04:24:09.430Z,94841.03
2022-12-08T04:26:36.033Z,94852.38
2022-12-08T04:29:02.883Z,94847.91
2022-12-08T04:31:29.658Z,94849.56
2022-12-08T04:33:57.514Z,94814.09
2022-12-08T04:36:24.452Z,94853.56
2022-12-08T04:38:51.289Z,94817.59
2022-12-08T04:41:21.322Z,94795.47
2022-12-08T04:43:48.402Z,94814.25
2022-12-08T04:46:15.678Z,94791.13
2022-12-08T04:48:42.544Z,94743.88
2022-12-08T04:51:17.001Z,94756.47
2022-12-08T04:53:46.977Z,94820.09
2022-12-08T04:56:18.699Z,94848.31
2022-12-08T04:58:45.933Z,94814.41
2022-12-08T05:01:13.652Z,94867.44
2022-12-08T05:03:40.569Z,94757.75
2022-12-08T05:06:07.559Z,94805.19
2022-12-08T05:08:34.417Z,94857.22
2022-12-08T05:11:06.026Z,94798.53
2022-12-08T05:13:33.706Z,94839.69
2022-12-08T05:16:09.973Z,94785.75
2022-12-08T05:18:37.890Z,94870.00
2022-12-08T05:21:05.750Z,94797.75
2022-12-08T05:23:33.511Z,94803.16
2022-12-08T05:26:00.745Z,94815.31
2022-12-08T05:28:44.198Z,94783.00
2022-12-08T05:31:12.836Z,94814.25
2022-12-08T05:33:39.833Z,94811.34
2022-12-08T05:36:07.484Z,94882.69
2022-12-08T05:38:34.326Z,94834.72
2022-12-08T05:41:01.061Z,94868.03
2022-12-08T05:43:27.774Z,94893.31
2022-12-08T05:45:54.767Z,94897.41
2022-12-08T05:48:21.646Z,94883.84
2022-12-08T05:50:49.063Z,94895.16
2022-12-08T05:53:18.316Z,94892.84
2022-12-08T05:55:46.115Z,94870.97
2022-12-08T05:58:17.549Z,94850.81
2022-12-08T06:00:45.742Z,94903.72
2022-12-08T06:03:13.646Z,94863.97
2022-12-08T06:05:41.249Z,94857.53
2022-12-08T06:08:08.550Z,94923.84
2022-12-08T06:10:35.348Z,94870.69
2022-12-08T06:13:02.235Z,94897.84
2022-12-08T06:15:28.856Z,94859.22
2022-12-08T06:17:55.588Z,94851.75
2022-12-08T06:20:22.356Z,94894.19
2022-12-08T06:22:48.995Z,94900.47
2022-12-08T06:25:15.674Z,94907.09
2022-12-08T06:27:42.441Z,94910.91
2022-12-08T06:30:09.424Z,94887.06
2022-12-08T06:32:36.734Z,94908.09
2022-12-08T06:35:04.025Z,94886.03
2022-12-08T06:37:30.876Z,94859.19
2022-12-08T06:39:57.845Z,94884.94
2022-12-08T06:42:43.119Z,94841.16
2022-12-08T06:45:10.700Z,94910.78
2022-12-08T06:47:37.580Z,94873.69
2022-12-08T06:50:06.594Z,94898.41
2022-12-08T06:52:34.904Z,94901.34
2022-12-08T06:55:03.723Z,94888.09
2022-12-08T06:57:31.015Z,94906.25
2022-12-08T06:59:57.877Z,94903.72
2022-12-08T07:02:24.550Z,94859.59
2022-12-08T07:04:51.698Z,94857.91
2022-12-08T07:07:18.402Z,94866.56
2022-12-08T07:09:45.486Z,94835.13
2022-12-08T07:12:12.288Z,94838.38
2022-12-08T07:14:39.287Z,94890.63
2022-12-08T07:17:06.230Z,94873.84
2022-12-08T07:19:33.466Z,94933.56
2022-12-08T07:22:00.086Z,94879.25
2022-12-08T07:24:26.923Z,94932.09
2022-12-08T07:26:53.751Z,94941.81
2022-12-08T07:29:24.708Z,94939.06
2022-12-08T07:31:53.280Z,94926.16
2022-12-08T07:34:20.164Z,94923.56
2022-12-08T07:36:46.804Z,94941.25
2022-12-08T07:39:13.517Z,94936.47
2022-12-08T07:41:40.354Z,94943.13
2022-12-08T07:44:07.023Z,94948.41
2022-12-08T07:46:33.859Z,94939.75
2022-12-08T07:49:00.852Z,94936.19
2022-12-08T07:51:28.595Z,94927.97
2022-12-08T07:53:55.514Z,94947.25
2022-12-08T07:56:23.108Z,94939.41
2022-12-08T07:58:50.952Z,94920.34
2022-12-08T08:01:33.081Z,94925.94
2022-12-08T08:04:02.059Z,94925.81
2022-12-08T08:06:28.792Z,94936.88
2022-12-08T08:08:55.488Z,94930.25
2022-12-08T08:11:22.765Z,94911.50
2022-12-08T08:14:02.565Z,94919.97
2022-12-08T08:16:34.963Z,94910.06
2022-12-08T08:19:04.646Z,94861.00
2022-12-08T08:21:47.403Z,94923.97
2022-12-08T08:24:14.755Z,94862.97
2022-12-08T08:26:41.727Z,94870.88
2022-12-08T08:29:08.363Z,94872.50
2022-12-08T08:31:35.200Z,94939.22
2022-12-08T08:34:06.686Z,94940.53
2022-12-08T08:36:33.575Z,94909.28
2022-12-08T08:39:00.271Z,94938.97
2022-12-08T08:41:26.989Z,94914.09
2022-12-08T08:43:55.965Z,94938.88
2022-12-08T08:46:22.866Z,94942.50
2022-12-08T08:48:49.841Z,94933.25
2022-12-08T08:51:16.705Z,94899.47
2022-12-08T08:53:44.160Z,94892.19
2022-12-08T08:56:16.111Z,94897.94
2022-12-08T08:58:43.161Z,94945.19
2022-12-08T09:01:15.567Z,94807.34
2022-12-08T09:03:42.108Z,94922.66
2022-12-08T09:06:09.005Z,94841.53
2022-12-08T09:08:35.868Z,94932.72
2022-12-08T09:11:02.535Z,94842.66
2022-12-08T09:13:29.119Z,94926.66
2022-12-08T09:15:56.888Z,94907.28
2022-12-08T09:18:23.541Z,94917.53
2022-12-08T09:20:50.271Z,94925.75
2022-12-08T09:23:16.985Z,94929.41
2022-12-08T09:25:47.288Z,94860.00
2022-12-08T09:28:14.637Z,94904.97
2022-12-08T09:30:42.276Z,94890.53
2022-12-08T09:33:09.068Z,94891.38
2022-12-08T09:35:36.294Z,94885.84
2022-12-08T09:38:03.222Z,94807.72
2022-12-08T09:40:33.788Z,94870.22
2022-12-08T09:43:24.761Z,94899.88
2022-12-08T09:45:52.064Z,94797.53
2022-12-08T09:48:24.948Z,94820.19
2022-12-08T09:50:57.207Z,94787.44
2022-12-08T09:53:39.907Z,94871.88
2022-12-08T09:56:16.193Z,94873.16
2022-12-08T09:59:06.492Z,94765.38
2022-12-08T10:01:38.463Z,94824.81
2022-12-08T10:04:34.886Z,94815.03
2022-12-08T10:07:19.468Z,94770.44
2022-12-08T10:10:14.091Z,94775.72
2022-12-08T10:12:49.649Z,94780.69
2022-12-08T10:15:45.204Z,94859.28
2022-12-08T10:18:26.302Z,94828.75
2022-12-08T10:20:55.118Z,94811.97
2022-12-08T10:23:44.310Z,94812.41
2022-12-08T10:26:14.917Z,94773.34
2022-12-08T10:28:45.172Z,94742.53
2022-12-08T10:31:22.108Z,94734.81
2022-12-08T10:33:57.635Z,94747.97
2022-12-08T10:36:49.060Z,94750.56
2022-12-08T10:39:31.642Z,94821.78
2022-12-08T10:42:15.114Z,94825.28
2022-12-08T10:44:58.201Z,94819.50
2022-12-08T10:47:27.971Z,94773.91
2022-12-08T10:50:19.045Z,94814.38
2022-12-08T10:52:54.629Z,94751.91
2022-12-08T10:55:23.736Z,94788.75
2022-12-08T10:57:50.665Z,94788.88
2022-12-08T11:00:21.183Z,94811.94
2022-12-08T11:03:00.675Z,94755.31
2022-12-08T11:05:31.776Z,94800.28
2022-12-08T11:07:59.392Z,94797.56
2022-12-08T11:10:36.890Z,94799.22
2022-12-08T11:13:18.579Z,94743.13
2022-12-08T11:15:47.206Z,94744.31
2022-12-08T11:18:23.089Z,94751.31
2022-12-08T11:20:59.030Z,94735.56
2022-12-08T11:23:28.678Z,94724.28
2022-12-08T11:26:01.474Z,94765.78
2022-12-08T11:28:29.107Z,94775.06
2022-12-08T11:31:05.139Z,94755.63
2022-12-08T11:33:31.953Z,94761.53
2022-12-08T11:36:05.888Z,94731.31
2022-12-08T11:38:35.363Z,94756.44
2022-12-08T11:41:15.528Z,94735.03
2022-12-08T11:43:47.154Z,94762.97
2022-12-08T11:46:20.659Z,94772.06
2022-12-08T11:49:06.688Z,94737.13
2022-12-08T11:51:39.728Z,94756.38
2022-12-08T11:54:30.891Z,94752.81
2022-12-08T11:57:13.303Z,94754.75
2022-12-08T11:59:48.246Z,94757.41
2022-12-08T12:02:20.188Z,94723.81
2022-12-08T12:05:02.084Z,94742.88
2022-12-08T12:07:58.224Z,94737.34
2022-12-08T12:10:53.112Z,94716.56
2022-12-08T12:13:38.533Z,94753.88
2022-12-08T12:16:33.589Z,94749.09
2022-12-08T12:19:17.345Z,94715.56
2022-12-08T12:21:54.180Z,94742.41
2022-12-08T12:24:25.873Z,94736.94
2022-12-08T12:27:02.642Z,94745.13
2022-12-08T12:29:39.077Z,94729.78
2022-12-08T12:32:11.283Z,94647.03
2022-12-08T12:34:47.744Z,94738.78
2022-12-08T12:37:19.319Z,94698.91
2022-12-08T12:39:52.120Z,94732.63
2022-12-08T12:42:38.693Z,94738.00
2022-12-08T12:45:16.306Z,94729.59
2022-12-08T12:47:57.157Z,94686.78
2022-12-08T12:50:33.454Z,94722.06
2022-12-08T12:53:26.904Z,94680.78
2022-12-08T12:56:02.515Z,94712.00
2022-12-08T12:58:32.358Z,94710.81
2022-12-08T13:01:11.743Z,94711.34
2022-12-08T13:04:03.652Z,94645.50
2022-12-08T13:06:50.566Z,94667.31
2022-12-08T13:09:39.373Z,94688.41
2022-12-08T13:12:18.153Z,94653.13
2022-12-08T13:14:50.002Z,94601.50
2022-12-08T13:17:30.888Z,94601.22
2022-12-08T13:20:00.476Z,94642.31
2022-12-08T13:22:57.707Z,94702.47
2022-12-08T13:26:11.745Z,94676.03
2022-12-08T13:29:01.445Z,94689.47
2022-12-08T13:31:51.444Z,94693.97
2022-12-08T13:34:33.746Z,94635.53
2022-12-08T13:37:06.984Z,94694.19
2022-12-08T13:39:39.663Z,94687.53
2022-12-08T13:42:12.525Z,94697.63
2022-12-08T13:57:03.972Z,94710.94
2022-12-08T13:59:35.063Z,94648.91
2022-12-08T14:02:15.208Z,94688.16
2022-12-08T14:05:16.810Z,94697.97
2022-12-08T14:07:34.721Z,94677.94
2022-12-08T14:10:03.777Z,94686.38
2022-12-08T14:12:31.696Z,94627.72
2022-12-08T14:15:05.885Z,94694.44
2022-12-08T14:17:33.939Z,94701.72
2022-12-08T14:20:04.369Z,94694.25
2022-12-08T14:22:38.715Z,94667.38
2022-12-08T14:25:07.755Z,94710.41
2022-12-08T14:27:36.752Z,94652.81
2022-12-08T14:30:13.673Z,94724.16
2022-12-08T14:32:47.220Z,94724.19
2022-12-08T14:35:31.265Z,94684.84
2022-12-08T14:38:01.024Z,94720.34
2022-12-08T14:40:36.656Z,94656.78
2022-12-08T14:43:09.434Z,94717.66
2022-12-08T14:45:39.175Z,94691.59
2022-12-08T14:48:21.527Z,94716.91
2022-12-08T14:51:12.053Z,94717.84
2022-12-08T14:53:43.717Z,94665.25
2022-12-08T14:56:24.847Z,94743.84
2022-12-08T14:59:05.136Z,94725.38
2022-12-08T15:01:32.608Z,94631.78
2022-12-08T15:04:12.187Z,94675.22
2022-12-08T15:07:05.747Z,94721.78
2022-12-08T15:09:37.390Z,94671.66
2022-12-08T15:12:24.708Z,94720.50
2022-12-08T15:14:57.760Z,94725.03
2022-12-08T15:17:35.526Z,94673.78
2022-12-08T15:20:04.477Z,94697.28
2022-12-08T15:22:31.822Z,94661.16
2022-12-08T15:24:58.618Z,94683.00
2022-12-08T15:27:25.939Z,94730.06
2022-12-08T15:29:53.340Z,94618.66
2022-12-08T15:32:22.427Z,94729.16
2022-12-08T15:34:49.435Z,94691.16
2022-12-08T15:37:22.768Z,94682.47
2022-12-08T15:39:50.026Z,94659.50
2022-12-08T15:42:17.003Z,94656.34
2022-12-08T15:44:44.332Z,94715.63
2022-12-08T15:47:22.557Z,94618.31
2022-12-08T15:49:51.296Z,94702.06
2022-12-08T15:52:23.444Z,94708.59
2022-12-08T15:54:50.287Z,94720.97
2022-12-08T16:00:51.203Z,94723.06
2022-12-08T16:07:19.175Z,94738.16
2022-12-08T16:09:11.847Z,94718.22
2022-12-08T16:12:06.599Z,94727.56
2022-12-08T16:17:21.882Z,94718.81
2022-12-08T16:19:48.563Z,94705.81
2022-12-08T16:22:52.751Z,94732.41
2022-12-08T16:25:19.925Z,94724.81
2022-12-08T16:28:08.220Z,94710.03
2022-12-08T16:30:39.550Z,94731.63
2022-12-08T16:33:06.397Z,94716.97
2022-12-08T16:35:33.296Z,94688.56
2022-12-08T16:38:00.162Z,94722.41
2022-12-08T16:40:26.966Z,94716.78
2022-12-08T16:42:53.761Z,94698.97
2022-12-08T16:45:25.059Z,94753.59
2022-12-08T16:47:55.032Z,94740.16
2022-12-08T16:50:29.904Z,94748.31
2022-12-08T16:52:59.234Z,94751.75
2022-12-08T16:55:26.586Z,94759.94
2022-12-08T16:57:53.994Z,94729.78
2022-12-08T17:00:24.366Z,94738.28
2022-12-08T17:02:52.368Z,94741.94
2022-12-08T17:05:21.281Z,94741.28
2022-12-08T17:07:50.174Z,94722.25
2022-12-08T17:10:23.049Z,94726.19
2022-12-08T17:12:51.092Z,94760.28
2022-12-08T17:15:20.185Z,94747.31
2022-12-08T17:17:47.148Z,94740.28
2022-12-08T17:20:20.195Z,94753.78
2022-12-08T17:22:47.406Z,94757.84
2022-12-08T17:25:14.614Z,94763.16
2022-12-08T17:27:42.244Z,94766.06
2022-12-08T17:30:11.846Z,94761.06
2022-12-08T17:32:39.031Z,94746.09
2022-12-08T17:35:06.807Z,94752.94
2022-12-08T17:37:34.110Z,94758.13
2022-12-08T17:40:00.924Z,94752.84
2022-12-08T17:42:27.601Z,94756.31
2022-12-08T17:44:54.927Z,94765.00
2022-12-08T17:47:22.971Z,94766.97
2022-12-08T17:49:49.840Z,94766.47
2022-12-08T17:52:16.776Z,94771.53
2022-12-08T17:54:43.502Z,94757.63
2022-12-08T17:57:10.375Z,94782.34
2022-12-08T17:59:37.338Z,94777.56
2022-12-08T18:02:04.692Z,94771.94
2022-12-08T18:04:31.709Z,94775.16
2022-12-08T18:07:00.791Z,94775.91
2022-12-08T18:09:30.275Z,94783.78
2022-12-08T18:11:57.023Z,94788.25
2022-12-08T18:14:23.749Z,94784.06
2022-12-08T18:16:50.584Z,94773.84
2022-12-08T18:19:17.400Z,94784.38
2022-12-08T18:21:44.540Z,94766.22
2022-12-08T18:24:23.454Z,94793.50
2022-12-08T18:26:52.692Z,94800.00
2022-12-08T18:29:20.850Z,94785.13
2022-12-08T18:31:47.735Z,94814.47
2022-12-08T18:34:14.686Z,94795.19
2022-12-08T18:36:41.466Z,94788.22
2022-12-08T18:39:21.603Z,94806.06
2022-12-08T18:41:48.249Z,94814.66
2022-12-08T18:44:14.841Z,94800.59
2022-12-08T18:46:41.742Z,94793.59
2022-12-08T18:49:13.674Z,94796.19
2022-12-08T18:51:40.358Z,94797.38
2022-12-08T18:54:07.271Z,94773.63
2022-12-08T18:56:35.561Z,94781.50
2022-12-08T18:59:08.166Z,94789.06
2022-12-08T19:01:37.392Z,94776.59
2022-12-08T19:06:54.796Z,94772.31
2022-12-08T19:09:22.646Z,94796.63
2022-12-08T19:11:49.478Z,94783.41
2022-12-08T19:14:16.258Z,94795.66
2022-12-08T19:16:42.999Z,94794.06
2022-12-08T19:19:09.871Z,94804.75
2022-12-08T19:21:44.498Z,94794.97
2022-12-08T19:24:11.342Z,94816.03
2022-12-08T19:26:39.500Z,94806.09
2022-12-08T19:29:06.110Z,94815.97
2022-12-08T19:31:33.085Z,94809.47
2022-12-08T19:33:59.794Z,94832.13
2022-12-08T19:36:27.792Z,94830.41
2022-12-08T19:39:13.429Z,94829.66
2022-12-08T19:41:58.834Z,94858.72
2022-12-08T19:44:34.606Z,94836.53
2022-12-08T19:47:01.894Z,94832.16
2022-12-08T19:49:28.958Z,94834.00
2022-12-08T19:51:56.217Z,94836.97
2022-12-08T19:54:23.013Z,94844.97
2022-12-08T19:56:49.662Z,94836.56
2022-12-08T19:59:16.360Z,94834.50
2022-12-08T20:01:44.209Z,94849.31
2022-12-08T20:04:16.017Z,94860.84
2022-12-08T20:06:43.994Z,94842.25
2022-12-08T20:09:12.369Z,94864.56
2022-12-08T20:11:39.450Z,94866.66
2022-12-08T20:14:07.282Z,94884.63
2022-12-08T20:16:34.125Z,94882.13
2022-12-08T20:19:02.188Z,94864.50
2022-12-08T20:21:29.080Z,94874.78
2022-12-08T20:23:56.201Z,94862.56
2022-12-08T20:26:23.625Z,94855.41
2022-12-08T20:28:51.075Z,94849.00
2022-12-08T20:31:24.017Z,94841.22
2022-12-08T20:33:50.937Z,94863.28
2022-12-08T20:36:20.594Z,94855.88
2022-12-08T20:38:49.261Z,94851.41
2022-12-08T20:41:16.356Z,94863.84
2022-12-08T20:43:47.178Z,94867.72
2022-12-08T20:46:16.646Z,94886.91
2022-12-08T20:48:44.328Z,94884.75
2022-12-08T20:51:16.387Z,94860.81
2022-12-08T20:53:43.801Z,94877.25
2022-12-08T20:56:15.960Z,94865.91
2022-12-08T20:58:43.228Z,94868.41
2022-12-08T21:01:12.406Z,94857.66
2022-12-08T21:03:39.709Z,94876.78
2022-12-08T21:06:07.596Z,94872.69
2022-12-08T21:08:35.076Z,94867.53
2022-12-08T21:11:02.314Z,94866.84
2022-12-08T21:13:29.476Z,94874.66
2022-12-08T21:15:57.209Z,94880.38
2022-12-08T21:18:25.475Z,94882.44
2022-12-08T21:20:53.263Z,94868.41
2022-12-08T21:23:20.136Z,94885.16
2022-12-08T21:25:47.580Z,94886.25
2022-12-08T21:28:14.811Z,94891.66
2022-12-08T21:30:43.094Z,94882.69
2022-12-08T21:33:10.208Z,94894.91
2022-12-08T21:35:37.334Z,94884.44
2022-12-08T21:38:06.515Z,94870.69
2022-12-08T21:40:35.342Z,94890.28
2022-12-08T21:43:03.815Z,94864.41
2022-12-08T21:45:31.141Z,94892.53
2022-12-08T21:48:00.451Z,94890.50
2022-12-08T21:50:29.101Z,94882.59
2022-12-08T21:52:55.953Z,94877.59
2022-12-08T21:55:23.825Z,94876.97
2022-12-08T21:57:50.819Z,94867.66
2022-12-08T22:00:18.493Z,94883.69
2022-12-08T22:02:45.713Z,94887.47
2022-12-08T22:05:12.784Z,94877.75
2022-12-08T22:07:40.633Z,94890.28
2022-12-08T22:10:08.616Z,94893.00
2022-12-08T22:12:36.900Z,94895.25
2022-12-08T22:15:09.474Z,94892.66
2022-12-08T22:17:38.686Z,94894.84
2022-12-08T22:20:07.951Z,94885.63
2022-12-08T22:22:35.488Z,94890.50
2022-12-08T22:25:08.991Z,94886.72
2022-12-08T22:27:35.825Z,94891.81
2022-12-08T22:30:02.890Z,94888.34
2022-12-08T22:32:29.737Z,94879.91
2022-12-08T22:34:56.665Z,94884.78
2022-12-08T22:37:23.441Z,94892.91
2022-12-08T22:39:50.169Z,94885.88
2022-12-08T22:42:16.888Z,94895.25
2022-12-08T22:44:43.979Z,94893.19
2022-12-08T22:47:10.912Z,94880.53
2022-12-08T22:49:37.736Z,94893.75
2022-12-08T22:52:04.627Z,94883.78
2022-12-08T22:54:31.636Z,94899.47
2022-12-08T22:56:58.383Z,94890.94
2022-12-08T22:59:25.060Z,94876.66
2022-12-08T23:01:53.924Z,94886.94
2022-12-08T23:04:20.829Z,94862.38
2022-12-08T23:06:47.920Z,94870.91
2022-12-08T23:09:15.152Z,94872.84
2022-12-08T23:11:42.281Z,94871.25
2022-12-08T23:14:08.908Z,94859.75
2022-12-08T23:16:35.834Z,94851.22
2022-12-08T23:19:02.711Z,94857.47
2022-12-08T23:21:29.807Z,94876.94
2022-12-08T23:23:56.681Z,94883.31
2022-12-08T23:26:26.766Z,94881.06
2022-12-08T23:28:54.498Z,94879.09
2022-12-08T23:31:22.248Z,94864.94
2022-12-08T23:33:49.260Z,94862.44
2022-12-08T23:36:17.876Z,94894.25
2022-12-08T23:38:44.864Z,94891.50
2022-12-08T23:41:14.353Z,94878.28
2022-12-08T23:43:46.937Z,94872.31
2022-12-08T23:46:15.205Z,94874.84
2022-12-08T23:48:42.164Z,94878.84
2022-12-08T23:51:09.338Z,94880.78
2022-12-08T23:53:36.321Z,94877.22
2022-12-08T23:56:08.197Z,94882.25
2022-12-08T23:58:36.151Z,94890.59
